createdAt,value
2022-09-21T00:01:40.417Z,7.97
2022-09-21T00:04:08.981Z,5.70
2022-09-21T00:06:39.011Z,6.27
2022-09-21T00:09:09.368Z,4.93
2022-09-21T00:11:38.067Z,5.10
2022-09-21T00:14:10.720Z,6.37
2022-09-21T00:16:40.282Z,6.87
2022-09-21T00:19:08.965Z,7.43
2022-09-21T00:21:39.669Z,6.80
2022-09-21T00:24:08.907Z,5.63
2022-09-21T00:26:37.607Z,8.57
2022-09-21T00:29:06.915Z,8.57
2022-09-21T00:31:36.046Z,7.40
2022-09-21T00:34:07.717Z,6.47
2022-09-21T00:36:36.325Z,5.70
2022-09-21T00:39:06.167Z,5.03
2022-09-21T00:41:35.416Z,5.77
2022-09-21T00:44:25.271Z,6.37
2022-09-21T00:46:56.696Z,5.27
2022-09-21T00:49:27.827Z,6.37
2022-09-21T00:52:00.371Z,8.13
2022-09-21T00:54:34.310Z,7.17
2022-09-21T00:57:03.458Z,6.23
2022-09-21T00:59:33.626Z,5.37
2022-09-21T01:02:02.595Z,7.00
2022-09-21T01:04:31.974Z,6.50
2022-09-21T01:07:04.087Z,6.70
2022-09-21T01:09:34.674Z,7.40
2022-09-21T01:12:17.566Z,7.77
2022-09-21T01:14:57.889Z,5.73
2022-09-21T01:17:35.030Z,7.43
2022-09-21T01:20:35.848Z,6.80
2022-09-21T01:23:21.937Z,5.67
2022-09-21T01:26:04.189Z,5.70
2022-09-21T01:28:50.723Z,9.00
2022-09-21T01:31:26.574Z,6.07
2022-09-21T01:33:59.574Z,5.30
2022-09-21T01:36:32.117Z,6.00
2022-09-21T01:39:06.964Z,5.23
2022-09-21T01:41:38.440Z,7.27
2022-09-21T01:44:13.607Z,5.70
2022-09-21T01:46:42.644Z,6.03
2022-09-21T01:49:15.439Z,8.33
2022-09-21T01:51:49.953Z,6.93
2022-09-21T01:54:23.497Z,7.50
2022-09-21T01:56:56.636Z,6.63
2022-09-21T01:59:32.692Z,7.43
2022-09-21T02:02:06.338Z,6.90
2022-09-21T02:04:36.286Z,5.43
2022-09-21T02:07:05.031Z,6.30
2022-09-21T02:09:34.268Z,5.23
2022-09-21T02:12:03.170Z,4.40
2022-09-21T02:14:35.556Z,5.00
2022-09-21T02:17:15.950Z,5.57
2022-09-21T02:19:50.088Z,4.70
2022-09-21T02:22:29.446Z,5.60
2022-09-21T02:25:05.404Z,5.00
2022-09-21T02:27:39.473Z,4.53
2022-09-21T02:30:14.197Z,6.63
2022-09-21T02:32:51.523Z,4.80
2022-09-21T02:35:30.149Z,7.97
2022-09-21T02:38:06.738Z,4.70
2022-09-21T02:40:41.847Z,5.33
2022-09-21T02:43:15.753Z,5.77
2022-09-21T02:45:52.944Z,4.73
2022-09-21T02:48:25.390Z,5.00
2022-09-21T02:50:57.774Z,5.93
2022-09-21T02:53:30.187Z,8.27
2022-09-21T02:56:03.975Z,4.80
2022-09-21T02:58:33.926Z,5.77
2022-09-21T03:01:04.397Z,5.37
2022-09-21T03:03:33.131Z,6.47
2022-09-21T03:06:02.194Z,5.63
2022-09-21T03:08:31.383Z,4.53
2022-09-21T03:10:59.892Z,5.07
2022-09-21T03:13:28.336Z,4.30
2022-09-21T03:16:02.211Z,9.13
2022-09-21T03:18:32.834Z,6.17
2022-09-21T03:21:02.262Z,6.00
2022-09-21T03:23:31.082Z,6.67
2022-09-21T03:25:59.695Z,5.40
2022-09-21T03:28:28.320Z,7.50
2022-09-21T03:30:56.974Z,5.83
2022-09-21T03:33:26.242Z,5.77
2022-09-21T03:35:56.114Z,7.27
2022-09-21T03:38:26.651Z,5.03
2022-09-21T03:40:58.255Z,5.30
2022-09-21T03:43:27.406Z,6.70
2022-09-21T03:45:56.089Z,5.07
2022-09-21T03:48:25.053Z,5.27
2022-09-21T03:50:54.933Z,6.80
2022-09-21T03:53:23.431Z,5.93
2022-09-21T03:55:51.863Z,7.33
2022-09-21T03:58:20.645Z,5.23
2022-09-21T04:00:49.101Z,5.37
2022-09-21T04:03:17.580Z,6.13
2022-09-21T04:05:46.093Z,5.50
2022-09-21T04:08:15.890Z,6.07
2022-09-21T04:10:44.356Z,7.30
2022-09-21T04:13:13.587Z,6.10
2022-09-21T04:15:42.079Z,4.70
2022-09-21T04:18:10.606Z,7.20
2022-09-21T04:20:39.049Z,5.97
2022-09-21T04:23:09.936Z,7.67
2022-09-21T04:25:39.854Z,5.67
2022-09-21T04:28:08.750Z,6.13
2022-09-21T04:30:38.111Z,6.20
2022-09-21T04:33:06.798Z,6.10
2022-09-21T04:35:35.285Z,5.93
2022-09-21T04:38:03.903Z,5.20
2022-09-21T04:40:32.390Z,5.67
2022-09-21T04:43:02.280Z,6.83
2022-09-21T04:45:32.249Z,6.93
2022-09-21T04:48:00.727Z,6.80
2022-09-21T04:50:29.308Z,6.80
2022-09-21T04:53:05.859Z,6.60
2022-09-21T04:55:34.385Z,5.57
2022-09-21T04:58:04.160Z,6.40
2022-09-21T05:00:32.993Z,6.37
2022-09-21T05:03:01.605Z,5.07
2022-09-21T05:05:30.058Z,5.00
2022-09-21T05:07:58.510Z,7.40
2022-09-21T05:10:26.273Z,5.47
2022-09-21T05:12:54.759Z,5.03
2022-09-21T05:15:25.204Z,7.23
2022-09-21T05:17:53.836Z,6.43
2022-09-21T05:20:22.587Z,7.70
2022-09-21T05:22:51.288Z,7.43
2022-09-21T05:25:19.761Z,8.37
2022-09-21T05:27:48.250Z,9.37
2022-09-21T05:30:17.467Z,7.90
2022-09-21T05:32:57.090Z,8.80
2022-09-21T05:35:29.850Z,7.10
2022-09-21T05:38:04.617Z,8.90
2022-09-21T05:40:34.024Z,8.23
2022-09-21T05:43:02.970Z,11.67
2022-09-21T05:45:32.186Z,6.10
2022-09-21T05:48:16.062Z,6.43
2022-09-21T05:50:57.021Z,6.67
2022-09-21T05:53:38.335Z,8.23
2022-09-21T05:56:14.738Z,6.00
2022-09-21T05:58:52.582Z,6.83
2022-09-21T06:01:36.618Z,6.93
2022-09-21T06:04:11.517Z,5.13
2022-09-21T06:06:40.568Z,7.77
2022-09-21T06:09:09.681Z,4.90
2022-09-21T06:11:38.500Z,5.60
2022-09-21T06:14:07.404Z,6.33
2022-09-21T06:16:39.899Z,6.53
2022-09-21T06:19:12.909Z,12.47
2022-09-21T06:21:41.710Z,5.97
2022-09-21T06:24:11.960Z,6.43
2022-09-21T06:26:40.675Z,6.13
2022-09-21T06:29:09.336Z,4.30
2022-09-21T06:31:37.937Z,4.93
2022-09-21T06:34:06.740Z,8.30
2022-09-21T06:36:37.224Z,3.47
2022-09-21T06:39:05.919Z,4.10
2022-09-21T06:41:34.632Z,5.23
2022-09-21T06:44:03.899Z,5.43
2022-09-21T06:46:32.660Z,5.23
2022-09-21T06:49:01.456Z,3.80
2022-09-21T06:51:30.020Z,3.97
2022-09-21T06:54:01.422Z,3.30
2022-09-21T06:56:30.282Z,3.13
2022-09-21T06:58:59.076Z,3.80
2022-09-21T07:01:28.948Z,3.17
2022-09-21T07:03:57.755Z,2.73
2022-09-21T07:06:26.378Z,4.03
2022-09-21T07:11:45.407Z,3.70
2022-09-21T07:14:14.638Z,4.00
2022-09-21T07:16:43.590Z,4.00
2022-09-21T07:19:12.356Z,3.00
2022-09-21T07:21:41.176Z,3.77
2022-09-21T07:24:12.424Z,3.93
2022-09-21T07:26:41.571Z,2.93
2022-09-21T07:29:11.751Z,3.10
2022-09-21T07:31:40.353Z,4.20
2022-09-21T07:34:08.857Z,3.30
2022-09-21T07:36:37.623Z,4.90
2022-09-21T07:39:06.592Z,3.30
2022-09-21T07:41:35.135Z,3.93
2022-09-21T07:44:04.362Z,4.50
2022-09-21T07:46:36.155Z,3.30
2022-09-21T07:49:05.972Z,3.27
2022-09-21T07:51:34.807Z,2.43
2022-09-21T07:54:05.668Z,3.20
2022-09-21T07:56:34.465Z,2.57
2022-09-21T07:59:07.724Z,2.07
2022-09-21T08:01:39.777Z,2.77
2022-09-21T08:04:11.147Z,2.20
2022-09-21T08:06:41.093Z,2.57
2022-09-21T08:09:09.778Z,2.10
2022-09-21T08:11:39.124Z,2.37
2022-09-21T08:14:08.083Z,2.07
2022-09-21T08:16:39.967Z,2.17
2022-09-21T08:19:08.932Z,2.13
2022-09-21T08:21:37.644Z,2.53
2022-09-21T08:24:06.772Z,6.27
2022-09-21T08:26:35.285Z,1.77
2022-09-21T08:29:05.040Z,2.10
2022-09-21T08:31:33.684Z,2.77
2022-09-21T08:34:04.163Z,2.33
2022-09-21T08:36:33.104Z,1.83
2022-09-21T08:39:01.600Z,1.63
2022-09-21T08:41:48.369Z,1.20
2022-09-21T08:44:23.811Z,1.43
2022-09-21T08:47:03.599Z,1.73
2022-09-21T08:49:36.518Z,1.77
2022-09-21T08:52:11.867Z,1.83
2022-09-21T08:54:48.488Z,1.47
2022-09-21T08:57:18.487Z,4.93
2022-09-21T08:59:49.454Z,3.67
2022-09-21T09:02:42.602Z,2.80
2022-09-21T09:05:26.966Z,1.27
2022-09-21T09:08:19.516Z,2.70
2022-09-21T09:11:00.301Z,1.20
2022-09-21T09:13:42.766Z,2.63
2022-09-21T09:16:22.280Z,1.10
2022-09-21T09:18:53.899Z,1.30
2022-09-21T09:21:31.805Z,1.40
2022-09-21T09:24:05.607Z,3.50
2022-09-21T09:26:42.641Z,3.97
2022-09-21T09:29:20.758Z,2.50
2022-09-21T09:31:51.103Z,2.60
2022-09-21T09:34:24.966Z,1.57
2022-09-21T09:37:00.724Z,1.20
2022-09-21T09:39:34.211Z,3.43
2022-09-21T09:42:31.454Z,1.10
2022-09-21T09:45:32.865Z,1.77
2022-09-21T09:48:29.951Z,1.20
2022-09-21T09:50:59.588Z,3.20
2022-09-21T09:53:30.769Z,1.83
2022-09-21T09:56:00.336Z,1.00
2022-09-21T09:58:38.317Z,1.00
2022-09-21T10:01:07.622Z,1.60
2022-09-21T10:03:37.382Z,1.43
2022-09-21T10:06:06.351Z,1.23
2022-09-21T10:08:44.809Z,2.93
2022-09-21T10:11:15.534Z,1.63
2022-09-21T10:13:46.339Z,1.23
2022-09-21T10:16:20.169Z,2.00
2022-09-21T10:18:52.600Z,1.10
2022-09-21T10:21:24.392Z,1.30
2022-09-21T10:24:01.987Z,2.53
2022-09-21T10:26:35.697Z,1.23
2022-09-21T10:29:19.741Z,1.35
2022-09-21T10:31:58.959Z,1.33
2022-09-21T10:34:30.259Z,1.37
2022-09-21T10:37:00.655Z,1.40
2022-09-21T10:39:32.311Z,2.50
2022-09-21T10:42:04.111Z,1.70
2022-09-21T10:44:41.891Z,4.23
2022-09-21T10:47:23.132Z,3.57
2022-09-21T10:49:55.173Z,1.67
2022-09-21T10:52:26.935Z,1.50
2022-09-21T10:54:57.999Z,1.60
2022-09-21T10:57:29.201Z,4.47
2022-09-21T10:59:59.901Z,2.27
2022-09-21T11:02:36.414Z,1.93
2022-09-21T11:05:13.588Z,2.80
2022-09-21T11:07:47.898Z,1.70
2022-09-21T11:10:23.682Z,1.40
2022-09-21T11:13:06.635Z,1.40
2022-09-21T11:15:47.005Z,2.83
2022-09-21T11:18:22.585Z,4.37
2022-09-21T11:20:55.983Z,1.83
2022-09-21T11:23:43.223Z,1.30
2022-09-21T11:26:22.719Z,1.27
2022-09-21T11:28:54.608Z,1.13
2022-09-21T11:31:49.949Z,3.60
2022-09-21T11:34:42.524Z,1.50
2022-09-21T11:37:20.224Z,1.50
2022-09-21T11:40:03.539Z,1.67
2022-09-21T11:42:49.448Z,3.00
2022-09-21T11:45:36.945Z,1.80
2022-09-21T11:48:18.013Z,1.00
2022-09-21T11:50:56.476Z,1.30
2022-09-21T11:53:34.431Z,1.37
2022-09-21T11:56:23.929Z,1.10
2022-09-21T11:58:59.141Z,8.67
2022-09-21T12:01:45.417Z,2.67
2022-09-21T12:04:29.374Z,3.80
2022-09-21T12:07:11.063Z,4.67
2022-09-21T12:10:07.421Z,1.57
2022-09-21T12:12:49.607Z,2.67
2022-09-21T12:15:25.916Z,3.50
2022-09-21T12:18:04.133Z,1.20
2022-09-21T12:20:43.349Z,2.33
2022-09-21T12:23:18.451Z,3.17
2022-09-21T12:25:52.050Z,1.40
2022-09-21T12:28:25.561Z,1.43
2022-09-21T12:31:01.024Z,1.20
2022-09-21T12:33:40.334Z,1.10
2022-09-21T12:36:14.755Z,1.37
2022-09-21T12:38:50.211Z,1.07
2022-09-21T12:41:23.794Z,1.50
2022-09-21T12:43:58.184Z,1.80
2022-09-21T12:46:34.166Z,2.90
2022-09-21T12:49:10.037Z,3.70
2022-09-21T12:51:43.393Z,1.10
2022-09-21T12:54:24.861Z,1.03
2022-09-21T12:57:03.754Z,0.50
2022-09-21T12:59:45.327Z,0.37
2022-09-21T13:02:22.613Z,0.37
2022-09-21T13:05:02.390Z,0.40
2022-09-21T13:07:49.723Z,0.60
2022-09-21T13:10:22.248Z,0.80
2022-09-21T13:12:57.198Z,1.27
2022-09-21T13:15:28.726Z,1.10
2022-09-21T13:18:04.329Z,0.70
2022-09-21T13:20:39.447Z,0.90
2022-09-21T13:23:17.741Z,1.43
2022-09-21T13:25:50.449Z,0.87
2022-09-21T13:28:23.866Z,2.83
2022-09-21T13:31:39.806Z,1.10
2022-09-21T13:34:24.039Z,2.40
2022-09-21T13:37:27.362Z,1.30
2022-09-21T13:40:39.033Z,1.50
2022-09-21T13:43:24.244Z,6.20
2022-09-21T13:45:56.608Z,3.87
2022-09-21T13:48:29.430Z,2.13
2022-09-21T13:51:02.056Z,0.70
2022-09-21T13:53:40.883Z,0.90
2022-09-21T13:56:17.659Z,1.03
2022-09-21T13:58:48.720Z,1.73
2022-09-21T14:01:45.272Z,1.70
2022-09-21T14:04:21.770Z,2.30
2022-09-21T14:06:53.367Z,1.93
2022-09-21T14:09:27.588Z,1.27
2022-09-21T14:11:59.756Z,1.60
2022-09-21T14:14:32.939Z,2.87
2022-09-21T14:17:03.086Z,3.43
2022-09-21T14:20:07.382Z,1.30
2022-09-21T14:22:46.634Z,2.13
2022-09-21T14:25:32.301Z,1.80
2022-09-21T14:28:05.750Z,5.60
2022-09-21T14:30:37.124Z,3.30
2022-09-21T14:33:33.293Z,0.80
2022-09-21T14:36:07.836Z,2.17
2022-09-21T14:38:52.421Z,0.87
2022-09-21T14:41:25.374Z,2.20
2022-09-21T14:43:56.544Z,2.57
2022-09-21T14:46:45.679Z,1.33
2022-09-21T14:49:34.948Z,0.90
2022-09-21T14:52:18.308Z,0.97
2022-09-21T14:55:05.279Z,3.07
2022-09-21T14:58:14.373Z,2.77
2022-09-21T15:00:45.292Z,0.60
2022-09-21T15:03:43.762Z,1.73
2022-09-21T15:06:37.800Z,1.93
2022-09-21T15:09:46.404Z,1.90
2022-09-21T15:12:20.868Z,1.20
2022-09-21T15:14:57.450Z,0.60
2022-09-21T15:17:27.393Z,1.07
2022-09-21T15:20:00.887Z,0.70
2022-09-21T15:22:29.946Z,0.60
2022-09-21T15:25:00.130Z,0.90
2022-09-21T15:27:32.945Z,1.30
2022-09-21T15:30:04.969Z,0.67
2022-09-21T15:32:38.082Z,0.80
2022-09-21T15:35:16.964Z,0.87
2022-09-21T15:37:46.752Z,0.83
2022-09-21T15:40:21.676Z,1.73
2022-09-21T15:43:04.507Z,0.70
2022-09-21T15:45:38.180Z,0.87
2022-09-21T15:48:13.244Z,1.30
2022-09-21T15:50:44.224Z,1.77
2022-09-21T15:53:20.085Z,1.20
2022-09-21T15:55:49.503Z,1.37
2022-09-21T15:58:37.142Z,1.13
2022-09-21T16:01:12.410Z,2.67
2022-09-21T16:03:42.148Z,1.27
2022-09-21T16:06:29.874Z,2.13
2022-09-21T16:08:58.643Z,3.10
2022-09-21T16:11:37.958Z,2.00
2022-09-21T16:14:30.578Z,2.83
2022-09-21T16:17:09.178Z,2.30
2022-09-21T16:19:42.684Z,2.97
2022-09-21T16:22:13.854Z,5.50
2022-09-21T16:24:46.933Z,2.77
2022-09-21T16:27:19.494Z,6.70
2022-09-21T16:29:50.736Z,4.30
2022-09-21T16:32:28.444Z,3.37
2022-09-21T16:35:27.956Z,5.33
2022-09-21T16:37:58.799Z,4.07
2022-09-21T16:40:28.240Z,4.13
2022-09-21T16:42:57.176Z,2.20
2022-09-21T16:45:31.445Z,3.00
2022-09-21T16:48:00.874Z,1.77
2022-09-21T16:50:29.454Z,1.70
2022-09-21T16:52:58.174Z,2.40
2022-09-21T16:55:29.260Z,3.50
2022-09-21T16:58:00.297Z,3.93
2022-09-21T17:00:40.584Z,2.83
2022-09-21T17:03:11.241Z,2.60
2022-09-21T17:05:39.928Z,2.43
2022-09-21T17:08:11.380Z,5.43
2022-09-21T17:10:44.157Z,3.57
2022-09-21T17:13:16.331Z,10.80
2022-09-21T17:15:49.958Z,4.23
2022-09-21T17:18:19.040Z,6.23
2022-09-21T17:20:49.488Z,5.20
2022-09-21T17:23:18.110Z,7.10
2022-09-21T17:25:46.827Z,3.43
2022-09-21T17:28:20.966Z,6.70
2022-09-21T17:30:51.742Z,4.67
2022-09-21T17:33:21.527Z,4.30
2022-09-21T17:35:51.235Z,3.87
2022-09-21T17:38:19.790Z,31.60
2022-09-21T17:40:49.017Z,17.93
2022-09-21T17:43:35.761Z,14.03
2022-09-21T17:46:13.958Z,11.97
2022-09-21T17:48:43.501Z,9.40
2022-09-21T17:51:33.002Z,7.40
2022-09-21T17:54:01.116Z,10.10
2022-09-21T17:56:42.086Z,15.03
2022-09-21T17:59:26.266Z,7.50
2022-09-21T18:01:59.425Z,8.30
2022-09-21T18:04:30.573Z,5.63
2022-09-21T18:07:00.534Z,6.60
2022-09-21T18:09:29.869Z,5.77
2022-09-21T18:12:37.503Z,5.63
2022-09-21T18:15:13.588Z,5.47
2022-09-21T18:17:58.200Z,7.63
2022-09-21T18:20:39.411Z,13.03
2022-09-21T18:23:18.937Z,12.10
2022-09-21T18:25:51.528Z,13.07
2022-09-21T18:28:25.144Z,13.83
2022-09-21T18:31:03.972Z,13.47
2022-09-21T18:33:43.623Z,10.67
2022-09-21T18:36:23.325Z,10.23
2022-09-21T18:39:02.111Z,8.23
2022-09-21T18:41:37.546Z,7.03
2022-09-21T18:44:14.541Z,5.97
2022-09-21T18:46:58.515Z,14.33
2022-09-21T18:49:54.545Z,6.53
2022-09-21T18:52:39.475Z,5.27
2022-09-21T18:55:19.253Z,5.17
2022-09-21T18:57:48.717Z,5.17
2022-09-21T19:00:18.785Z,6.57
2022-09-21T19:03:05.388Z,6.30
2022-09-21T19:05:40.504Z,5.70
2022-09-21T19:08:15.672Z,4.77
2022-09-21T19:10:50.519Z,4.17
2022-09-21T19:13:33.928Z,4.00
2022-09-21T19:16:12.991Z,5.47
2022-09-21T19:18:50.984Z,5.17
2022-09-21T19:21:32.685Z,4.77
2022-09-21T19:24:09.166Z,5.70
2022-09-21T19:26:46.813Z,5.53
2022-09-21T19:29:40.382Z,3.33
2022-09-21T19:32:16.377Z,4.57
2022-09-21T19:34:45.859Z,4.53
2022-09-21T19:37:16.579Z,4.57
2022-09-21T19:39:45.705Z,5.10
2022-09-21T19:42:29.844Z,4.67
2022-09-21T19:45:13.788Z,6.80
2022-09-21T19:47:51.201Z,4.83
2022-09-21T19:50:24.159Z,5.07
2022-09-21T19:53:15.498Z,5.30
2022-09-21T19:56:02.915Z,7.27
2022-09-21T19:58:49.456Z,5.60
2022-09-21T20:01:21.957Z,8.13
2022-09-21T20:03:51.555Z,6.57
2022-09-21T20:06:24.663Z,5.40
2022-09-21T20:09:05.283Z,5.70
2022-09-21T20:11:44.667Z,6.87
2022-09-21T20:14:26.965Z,6.57
2022-09-21T20:16:59.364Z,6.83
2022-09-21T20:19:48.807Z,7.30
2022-09-21T20:22:19.833Z,7.13
2022-09-21T20:24:56.782Z,6.00
2022-09-21T20:27:34.745Z,5.10
2022-09-21T20:30:03.644Z,5.50
2022-09-21T20:32:32.900Z,4.77
2022-09-21T20:35:01.363Z,5.83
2022-09-21T20:37:30.306Z,8.60
2022-09-21T20:40:00.290Z,4.43
2022-09-21T20:42:28.842Z,6.63
2022-09-21T20:44:57.334Z,6.57
2022-09-21T20:47:28.894Z,6.70
2022-09-21T20:49:57.392Z,6.20
2022-09-21T20:52:25.890Z,7.07
2022-09-21T20:54:54.315Z,5.67
2022-09-21T20:57:24.176Z,6.10
2022-09-21T20:59:52.622Z,6.70
2022-09-21T21:02:21.115Z,4.80
2022-09-21T21:04:49.591Z,5.03
2022-09-21T21:07:18.097Z,4.33
2022-09-21T21:09:46.516Z,8.30
2022-09-21T21:12:16.613Z,5.83
2022-09-21T21:14:46.428Z,4.60
2022-09-21T21:17:15.374Z,5.23
2022-09-21T21:19:44.590Z,6.43
2022-09-21T21:22:14.481Z,6.20
2022-09-21T21:24:44.090Z,7.47
2022-09-21T21:27:16.497Z,8.13
2022-09-21T21:29:50.221Z,8.17
2022-09-21T21:32:20.423Z,11.13
2022-09-21T21:34:50.345Z,8.43
2022-09-21T21:37:20.338Z,7.73
2022-09-21T21:39:49.672Z,7.73
2022-09-21T21:42:19.261Z,7.77
2022-09-21T21:44:50.356Z,12.53
2022-09-21T21:50:08.574Z,14.63
2022-09-21T21:52:37.149Z,14.00
2022-09-21T21:55:06.463Z,14.37
2022-09-21T21:57:35.053Z,13.67
2022-09-21T22:00:06.814Z,14.83
2022-09-21T22:02:35.326Z,12.50
2022-09-21T22:05:03.978Z,11.07
2022-09-21T22:07:32.456Z,12.60
2022-09-21T22:10:00.922Z,11.53
2022-09-21T22:12:29.403Z,10.53
2022-09-21T22:14:57.892Z,18.43
2022-09-21T22:17:27.692Z,12.00
2022-09-21T22:19:56.749Z,10.63
2022-09-21T22:22:25.695Z,9.77
2022-09-21T22:24:54.772Z,8.13
2022-09-21T22:27:23.234Z,13.13
2022-09-21T22:29:51.727Z,6.90
2022-09-21T22:32:20.155Z,8.23
2022-09-21T22:34:51.045Z,8.77
2022-09-21T22:37:19.549Z,5.87
2022-09-21T22:39:48.110Z,7.60
2022-09-21T22:42:16.597Z,8.03
2022-09-21T22:44:45.077Z,8.07
2022-09-21T22:47:13.492Z,7.77
2022-09-21T22:49:42.059Z,8.20
2022-09-21T22:52:12.018Z,6.20
2022-09-21T22:54:40.508Z,8.03
2022-09-21T22:57:09.063Z,6.63
2022-09-21T22:59:37.545Z,6.47
2022-09-21T23:02:08.434Z,5.23
2022-09-21T23:04:37.047Z,6.27
2022-09-21T23:07:05.691Z,7.27
2022-09-21T23:09:35.654Z,6.23
2022-09-21T23:12:04.306Z,7.57
2022-09-21T23:14:32.799Z,6.77
2022-09-21T23:17:01.258Z,5.77
2022-09-21T23:19:29.775Z,6.40
2022-09-21T23:21:58.550Z,7.67
2022-09-21T23:24:27.286Z,7.43
2022-09-21T23:26:57.088Z,5.07
2022-09-21T23:29:25.579Z,6.33
2022-09-21T23:31:54.096Z,8.63
2022-09-21T23:34:22.578Z,6.97
2022-09-21T23:36:51.091Z,9.57
2022-09-21T23:39:19.736Z,6.63
2022-09-21T23:41:48.198Z,8.47
2022-09-21T23:44:18.030Z,6.80
2022-09-21T23:46:46.912Z,8.63
2022-09-21T23:49:15.763Z,8.93
2022-09-21T23:51:44.784Z,6.13
2022-09-21T23:54:15.142Z,8.07
2022-09-21T23:56:45.012Z,6.07
2022-09-21T23:59:14.016Z,9.30
